sensor_id;sensor_type;location;lat;lon;timestamp;temperature;humidity
37342;DHT22;58643;49.052;8.518;2023-02-24T00:02:13;9.10;99.90
37342;DHT22;58643;49.052;8.518;2023-02-24T00:04:39;9.20;99.90
37342;DHT22;58643;49.052;8.518;2023-02-24T00:07:06;9.20;99.90
37342;DHT22;58643;49.052;8.518;2023-02-24T00:09:32;9.20;99.90
37342;DHT22;58643;49.052;8.518;2023-02-24T00:12:05;9.20;99.90
37342;DHT22;58643;49.052;8.518;2023-02-24T00:14:34;10.40;99.90
37342;DHT22;58643;49.052;8.518;2023-02-24T00:17:00;9.10;99.90
37342;DHT22;58643;49.052;8.518;2023-02-24T00:19:28;9.10;99.90
37342;DHT22;58643;49.052;8.518;2023-02-24T00:21:56;10.90;99.90
37342;DHT22;58643;49.052;8.518;2023-02-24T00:24:24;9.00;99.90
37342;DHT22;58643;49.052;8.518;2023-02-24T00:26:52;8.90;99.90
37342;DHT22;58643;49.052;8.518;2023-02-24T00:29:19;7.40;99.90
37342;DHT22;58643;49.052;8.518;2023-02-24T00:31:45;9.00;99.90
37342;DHT22;58643;49.052;8.518;2023-02-24T00:34:11;8.90;99.90
37342;DHT22;58643;49.052;8.518;2023-02-24T00:36:37;10.70;99.90
37342;DHT22;58643;49.052;8.518;2023-02-24T00:39:06;11.10;99.90
37342;DHT22;58643;49.052;8.518;2023-02-24T00:41:42;8.90;99.90
37342;DHT22;58643;49.052;8.518;2023-02-24T00:44:10;8.90;99.90
37342;DHT22;58643;49.052;8.518;2023-02-24T00:46:40;9.70;99.90
37342;DHT22;58643;49.052;8.518;2023-02-24T00:49:12;8.90;99.90
37342;DHT22;58643;49.052;8.518;2023-02-24T00:51:42;8.50;99.90
37342;DHT22;58643;49.052;8.518;2023-02-24T00:54:08;8.60;99.90
37342;DHT22;58643;49.052;8.518;2023-02-24T00:56:40;8.90;99.90
37342;DHT22;58643;49.052;8.518;2023-02-24T00:59:06;9.40;99.90
37342;DHT22;58643;49.052;8.518;2023-02-24T01:01:32;9.80;99.90
37342;DHT22;58643;49.052;8.518;2023-02-24T01:04:00;9.50;99.90
37342;DHT22;58643;49.052;8.518;2023-02-24T01:06:37;8.70;99.90
37342;DHT22;58643;49.052;8.518;2023-02-24T01:09:03;8.50;99.90
37342;DHT22;58643;49.052;8.518;2023-02-24T01:11:34;8.70;99.90
37342;DHT22;58643;49.052;8.518;2023-02-24T01:14:21;10.60;99.90
37342;DHT22;58643;49.052;8.518;2023-02-24T01:16:48;10.40;99.90
37342;DHT22;58643;49.052;8.518;2023-02-24T01:19:16;10.50;99.90
37342;DHT22;58643;49.052;8.518;2023-02-24T01:21:42;8.40;99.90
37342;DHT22;58643;49.052;8.518;2023-02-24T01:24:08;10.10;99.90
37342;DHT22;58643;49.052;8.518;2023-02-24T01:26:35;8.50;99.90
37342;DHT22;58643;49.052;8.518;2023-02-24T01:29:01;9.80;99.90
37342;DHT22;58643;49.052;8.518;2023-02-24T01:31:28;8.50;99.90
37342;DHT22;58643;49.052;8.518;2023-02-24T01:33:54;8.50;99.90
37342;DHT22;58643;49.052;8.518;2023-02-24T01:36:24;9.60;99.90
37342;DHT22;58643;49.052;8.518;2023-02-24T01:38:51;8.60;99.90
37342;DHT22;58643;49.052;8.518;2023-02-24T01:41:19;9.80;99.90
37342;DHT22;58643;49.052;8.518;2023-02-24T01:44:01;8.50;99.90
37342;DHT22;58643;49.052;8.518;2023-02-24T01:46:30;8.40;99.90
37342;DHT22;58643;49.052;8.518;2023-02-24T01:49:02;8.40;99.90
37342;DHT22;58643;49.052;8.518;2023-02-24T01:51:30;8.30;99.90
37342;DHT22;58643;49.052;8.518;2023-02-24T01:53:59;8.40;99.90
37342;DHT22;58643;49.052;8.518;2023-02-24T01:56:25;8.30;99.90
37342;DHT22;58643;49.052;8.518;2023-02-24T01:58:54;9.50;99.90
37342;DHT22;58643;49.052;8.518;2023-02-24T02:01:20;10.10;99.90
37342;DHT22;58643;49.052;8.518;2023-02-24T02:03:46;8.10;99.90
37342;DHT22;58643;49.052;8.518;2023-02-24T02:06:13;8.20;99.90
37342;DHT22;58643;49.052;8.518;2023-02-24T02:08:42;7.80;99.90
37342;DHT22;58643;49.052;8.518;2023-02-24T02:11:11;8.60;99.90
37342;DHT22;58643;49.052;8.518;2023-02-24T02:13:42;8.10;99.90
37342;DHT22;58643;49.052;8.518;2023-02-24T02:19:17;8.10;99.90
37342;DHT22;58643;49.052;8.518;2023-02-24T02:25:27;8.40;99.90
37342;DHT22;58643;49.052;8.518;2023-02-24T02:34:08;8.20;99.90
37342;DHT22;58643;49.052;8.518;2023-02-24T02:36:40;8.50;99.90
37342;DHT22;58643;49.052;8.518;2023-02-24T02:39:24;8.20;99.90
37342;DHT22;58643;49.052;8.518;2023-02-24T02:44:39;9.70;99.90
37342;DHT22;58643;49.052;8.518;2023-02-24T02:47:29;8.20;99.90
37342;DHT22;58643;49.052;8.518;2023-02-24T02:52:59;8.00;99.90
37342;DHT22;58643;49.052;8.518;2023-02-24T02:55:55;8.20;99.90
37342;DHT22;58643;49.052;8.518;2023-02-24T02:58:26;8.20;99.90
37342;DHT22;58643;49.052;8.518;2023-02-24T03:00:57;8.10;99.90
37342;DHT22;58643;49.052;8.518;2023-02-24T03:03:37;8.20;99.90
37342;DHT22;58643;49.052;8.518;2023-02-24T03:06:19;8.20;99.90
37342;DHT22;58643;49.052;8.518;2023-02-24T03:09:12;8.00;99.90
37342;DHT22;58643;49.052;8.518;2023-02-24T03:11:45;10.20;99.90
37342;DHT22;58643;49.052;8.518;2023-02-24T03:14:18;8.20;99.90
37342;DHT22;58643;49.052;8.518;2023-02-24T03:16:47;9.70;99.90
37342;DHT22;58643;49.052;8.518;2023-02-24T03:19:17;8.10;99.90
37342;DHT22;58643;49.052;8.518;2023-02-24T03:21:48;8.00;99.90
37342;DHT22;58643;49.052;8.518;2023-02-24T03:24:17;8.10;99.90
37342;DHT22;58643;49.052;8.518;2023-02-24T03:26:48;8.10;99.90
37342;DHT22;58643;49.052;8.518;2023-02-24T03:29:29;8.30;99.90
37342;DHT22;58643;49.052;8.518;2023-02-24T03:32:21;8.50;99.90
37342;DHT22;58643;49.052;8.518;2023-02-24T03:34:55;9.80;99.90
37342;DHT22;58643;49.052;8.518;2023-02-24T03:37:23;8.20;99.90
37342;DHT22;58643;49.052;8.518;2023-02-24T03:39:53;7.60;99.90
37342;DHT22;58643;49.052;8.518;2023-02-24T03:42:22;8.10;99.90
37342;DHT22;58643;49.052;8.518;2023-02-24T03:44:48;8.10;99.90
37342;DHT22;58643;49.052;8.518;2023-02-24T03:47:15;8.00;99.90
37342;DHT22;58643;49.052;8.518;2023-02-24T03:49:42;8.10;99.90
37342;DHT22;58643;49.052;8.518;2023-02-24T03:55:27;9.10;99.90
37342;DHT22;58643;49.052;8.518;2023-02-24T04:06:19;8.10;99.90
37342;DHT22;58643;49.052;8.518;2023-02-24T04:11:25;8.10;99.90
37342;DHT22;58643;49.052;8.518;2023-02-24T04:14:17;9.90;99.90
37342;DHT22;58643;49.052;8.518;2023-02-24T04:19:20;9.70;99.90
37342;DHT22;58643;49.052;8.518;2023-02-24T04:21:49;8.00;99.90
37342;DHT22;58643;49.052;8.518;2023-02-24T04:24:17;8.10;99.90
37342;DHT22;58643;49.052;8.518;2023-02-24T04:26:46;8.60;99.90
37342;DHT22;58643;49.052;8.518;2023-02-24T04:29:16;8.10;99.90
37342;DHT22;58643;49.052;8.518;2023-02-24T04:31:49;8.10;99.90
37342;DHT22;58643;49.052;8.518;2023-02-24T04:34:16;9.60;99.90
37342;DHT22;58643;49.052;8.518;2023-02-24T04:36:48;8.20;99.90
37342;DHT22;58643;49.052;8.518;2023-02-24T04:39:18;7.80;99.90
37342;DHT22;58643;49.052;8.518;2023-02-24T04:41:45;7.90;99.90
37342;DHT22;58643;49.052;8.518;2023-02-24T04:44:14;7.70;99.90
37342;DHT22;58643;49.052;8.518;2023-02-24T04:46:42;8.20;99.90
37342;DHT22;58643;49.052;8.518;2023-02-24T04:49:08;8.10;99.90
37342;DHT22;58643;49.052;8.518;2023-02-24T04:51:35;8.00;99.90
37342;DHT22;58643;49.052;8.518;2023-02-24T04:54:00;8.10;99.90
37342;DHT22;58643;49.052;8.518;2023-02-24T04:56:28;8.00;99.90
37342;DHT22;58643;49.052;8.518;2023-02-24T04:58:54;8.00;99.90
37342;DHT22;58643;49.052;8.518;2023-02-24T05:01:20;8.00;99.90
37342;DHT22;58643;49.052;8.518;2023-02-24T05:03:45;8.10;99.90
37342;DHT22;58643;49.052;8.518;2023-02-24T05:06:15;8.00;99.90
37342;DHT22;58643;49.052;8.518;2023-02-24T05:08:42;8.20;99.90
37342;DHT22;58643;49.052;8.518;2023-02-24T05:11:14;9.70;99.90
37342;DHT22;58643;49.052;8.518;2023-02-24T05:13:41;7.90;99.90
37342;DHT22;58643;49.052;8.518;2023-02-24T05:16:11;7.90;99.90
37342;DHT22;58643;49.052;8.518;2023-02-24T05:18:38;8.00;99.90
37342;DHT22;58643;49.052;8.518;2023-02-24T05:21:15;8.10;99.90
37342;DHT22;58643;49.052;8.518;2023-02-24T05:24:00;8.00;99.90
37342;DHT22;58643;49.052;8.518;2023-02-24T05:26:31;8.10;99.90
37342;DHT22;58643;49.052;8.518;2023-02-24T05:28:58;8.30;99.90
37342;DHT22;58643;49.052;8.518;2023-02-24T05:31:27;8.10;99.90
37342;DHT22;58643;49.052;8.518;2023-02-24T05:33:59;8.00;99.90
37342;DHT22;58643;49.052;8.518;2023-02-24T05:36:28;9.60;99.90
37342;DHT22;58643;49.052;8.518;2023-02-24T05:38:55;7.90;99.90
37342;DHT22;58643;49.052;8.518;2023-02-24T05:41:30;7.90;99.90
37342;DHT22;58643;49.052;8.518;2023-02-24T05:44:02;7.90;99.90
37342;DHT22;58643;49.052;8.518;2023-02-24T05:46:34;8.20;99.90
37342;DHT22;58643;49.052;8.518;2023-02-24T05:49:03;9.30;99.90
37342;DHT22;58643;49.052;8.518;2023-02-24T05:51:34;8.10;99.90
37342;DHT22;58643;49.052;8.518;2023-02-24T05:54:02;8.10;99.90
37342;DHT22;58643;49.052;8.518;2023-02-24T05:56:32;8.00;99.90
37342;DHT22;58643;49.052;8.518;2023-02-24T05:59:02;8.10;99.90
37342;DHT22;58643;49.052;8.518;2023-02-24T06:01:28;8.00;99.90
37342;DHT22;58643;49.052;8.518;2023-02-24T06:03:55;7.80;99.90
37342;DHT22;58643;49.052;8.518;2023-02-24T06:06:21;7.90;99.90
37342;DHT22;58643;49.052;8.518;2023-02-24T06:08:48;7.90;99.90
37342;DHT22;58643;49.052;8.518;2023-02-24T06:11:15;8.00;99.90
37342;DHT22;58643;49.052;8.518;2023-02-24T06:13:42;7.80;99.90
37342;DHT22;58643;49.052;8.518;2023-02-24T06:16:14;7.80;99.90
37342;DHT22;58643;49.052;8.518;2023-02-24T06:18:41;7.90;99.90
37342;DHT22;58643;49.052;8.518;2023-02-24T06:21:09;8.00;99.90
37342;DHT22;58643;49.052;8.518;2023-02-24T06:23:38;8.00;99.90
37342;DHT22;58643;49.052;8.518;2023-02-24T06:26:04;9.80;99.90
37342;DHT22;58643;49.052;8.518;2023-02-24T06:28:36;9.60;99.90
37342;DHT22;58643;49.052;8.518;2023-02-24T06:31:05;7.90;99.90
37342;DHT22;58643;49.052;8.518;2023-02-24T06:33:32;8.00;99.90
37342;DHT22;58643;49.052;8.518;2023-02-24T06:35:59;8.90;99.90
37342;DHT22;58643;49.052;8.518;2023-02-24T06:38:24;9.40;99.90
37342;DHT22;58643;49.052;8.518;2023-02-24T06:40:50;8.00;99.90
37342;DHT22;58643;49.052;8.518;2023-02-24T06:43:17;8.00;99.90
37342;DHT22;58643;49.052;8.518;2023-02-24T06:45:43;7.80;99.90
37342;DHT22;58643;49.052;8.518;2023-02-24T06:48:09;8.00;99.90
37342;DHT22;58643;49.052;8.518;2023-02-24T06:50:36;8.00;99.90
37342;DHT22;58643;49.052;8.518;2023-02-24T06:53:02;7.90;99.90
37342;DHT22;58643;49.052;8.518;2023-02-24T06:55:28;8.70;99.90
37342;DHT22;58643;49.052;8.518;2023-02-24T06:57:59;8.20;99.90
37342;DHT22;58643;49.052;8.518;2023-02-24T07:00:31;8.10;99.90
37342;DHT22;58643;49.052;8.518;2023-02-24T07:03:08;8.10;99.90
37342;DHT22;58643;49.052;8.518;2023-02-24T07:05:47;10.50;99.90
37342;DHT22;58643;49.052;8.518;2023-02-24T07:08:23;8.20;99.90
37342;DHT22;58643;49.052;8.518;2023-02-24T07:10:53;8.20;99.90
37342;DHT22;58643;49.052;8.518;2023-02-24T07:13:21;8.40;99.90
37342;DHT22;58643;49.052;8.518;2023-02-24T07:15:47;8.20;99.90
37342;DHT22;58643;49.052;8.518;2023-02-24T07:18:15;8.20;99.90
37342;DHT22;58643;49.052;8.518;2023-02-24T07:20:41;8.20;99.90
37342;DHT22;58643;49.052;8.518;2023-02-24T07:23:11;10.20;99.90
37342;DHT22;58643;49.052;8.518;2023-02-24T07:25:37;8.90;99.90
37342;DHT22;58643;49.052;8.518;2023-02-24T07:28:04;8.10;99.90
37342;DHT22;58643;49.052;8.518;2023-02-24T07:30:32;8.30;99.90
37342;DHT22;58643;49.052;8.518;2023-02-24T07:32:58;8.40;99.90
37342;DHT22;58643;49.052;8.518;2023-02-24T07:35:25;9.80;99.90
37342;DHT22;58643;49.052;8.518;2023-02-24T07:37:51;10.30;99.90
37342;DHT22;58643;49.052;8.518;2023-02-24T07:40:17;8.50;99.90
37342;DHT22;58643;49.052;8.518;2023-02-24T07:42:47;8.50;99.90
37342;DHT22;58643;49.052;8.518;2023-02-24T07:45:13;11.10;99.90
37342;DHT22;58643;49.052;8.518;2023-02-24T07:47:39;8.50;99.90
37342;DHT22;58643;49.052;8.518;2023-02-24T07:50:08;8.10;99.90
37342;DHT22;58643;49.052;8.518;2023-02-24T07:52:45;10.40;99.90
37342;DHT22;58643;49.052;8.518;2023-02-24T07:55:12;10.70;99.90
37342;DHT22;58643;49.052;8.518;2023-02-24T07:57:40;10.00;99.90
37342;DHT22;58643;49.052;8.518;2023-02-24T08:00:12;8.50;99.90
37342;DHT22;58643;49.052;8.518;2023-02-24T08:02:47;8.50;99.90
37342;DHT22;58643;49.052;8.518;2023-02-24T08:05:16;8.50;99.90
37342;DHT22;58643;49.052;8.518;2023-02-24T08:07:46;8.50;99.90
37342;DHT22;58643;49.052;8.518;2023-02-24T08:10:20;8.60;99.90
37342;DHT22;58643;49.052;8.518;2023-02-24T08:12:53;8.90;99.90
37342;DHT22;58643;49.052;8.518;2023-02-24T08:15:24;8.80;99.90
37342;DHT22;58643;49.052;8.518;2023-02-24T08:17:52;9.00;99.90
37342;DHT22;58643;49.052;8.518;2023-02-24T08:20:19;9.00;99.90
37342;DHT22;58643;49.052;8.518;2023-02-24T08:22:48;9.50;99.90
37342;DHT22;58643;49.052;8.518;2023-02-24T08:25:17;9.20;99.90
37342;DHT22;58643;49.052;8.518;2023-02-24T08:27:46;10.90;99.90
37342;DHT22;58643;49.052;8.518;2023-02-24T08:30:20;9.10;99.90
37342;DHT22;58643;49.052;8.518;2023-02-24T08:32:52;9.00;99.90
37342;DHT22;58643;49.052;8.518;2023-02-24T08:35:24;9.10;99.90
37342;DHT22;58643;49.052;8.518;2023-02-24T08:38:06;9.30;99.90
37342;DHT22;58643;49.052;8.518;2023-02-24T08:40:35;8.90;99.90
37342;DHT22;58643;49.052;8.518;2023-02-24T08:43:08;9.00;99.90
37342;DHT22;58643;49.052;8.518;2023-02-24T08:45:55;8.90;99.90
37342;DHT22;58643;49.052;8.518;2023-02-24T08:48:37;8.90;99.90
37342;DHT22;58643;49.052;8.518;2023-02-24T08:53:42;8.80;99.90
37342;DHT22;58643;49.052;8.518;2023-02-24T08:56:10;8.80;99.90
37342;DHT22;58643;49.052;8.518;2023-02-24T08:58:42;11.40;99.90
37342;DHT22;58643;49.052;8.518;2023-02-24T09:01:20;8.70;99.90
37342;DHT22;58643;49.052;8.518;2023-02-24T09:03:51;9.10;99.90
37342;DHT22;58643;49.052;8.518;2023-02-24T09:06:20;9.40;99.90
37342;DHT22;58643;49.052;8.518;2023-02-24T09:08:55;8.70;99.90
37342;DHT22;58643;49.052;8.518;2023-02-24T09:11:39;8.70;99.90
37342;DHT22;58643;49.052;8.518;2023-02-24T09:14:12;8.60;99.90
37342;DHT22;58643;49.052;8.518;2023-02-24T09:16:45;11.00;99.90
37342;DHT22;58643;49.052;8.518;2023-02-24T09:19:49;9.80;99.90
37342;DHT22;58643;49.052;8.518;2023-02-24T09:22:24;9.10;99.90
37342;DHT22;58643;49.052;8.518;2023-02-24T09:28:06;9.20;99.90
37342;DHT22;58643;49.052;8.518;2023-02-24T09:30:39;9.60;99.90
37342;DHT22;58643;49.052;8.518;2023-02-24T09:36:00;9.90;99.90
37342;DHT22;58643;49.052;8.518;2023-02-24T09:38:39;10.00;99.90
37342;DHT22;58643;49.052;8.518;2023-02-24T09:47:18;10.00;99.90
37342;DHT22;58643;49.052;8.518;2023-02-24T09:50:20;9.90;99.90
37342;DHT22;58643;49.052;8.518;2023-02-24T09:52:50;10.00;99.90
37342;DHT22;58643;49.052;8.518;2023-02-24T09:55:41;11.70;99.90
37342;DHT22;58643;49.052;8.518;2023-02-24T09:58:47;10.10;99.90
37342;DHT22;58643;49.052;8.518;2023-02-24T10:06:54;12.50;99.90
37342;DHT22;58643;49.052;8.518;2023-02-24T10:10:10;10.30;99.90
37342;DHT22;58643;49.052;8.518;2023-02-24T10:14:57;10.10;99.90
37342;DHT22;58643;49.052;8.518;2023-02-24T10:18:03;10.90;99.90
37342;DHT22;58643;49.052;8.518;2023-02-24T10:20:41;11.20;99.90
37342;DHT22;58643;49.052;8.518;2023-02-24T10:26:41;10.70;99.90
37342;DHT22;58643;49.052;8.518;2023-02-24T10:29:38;11.10;99.90
37342;DHT22;58643;49.052;8.518;2023-02-24T10:32:25;11.30;99.90
37342;DHT22;58643;49.052;8.518;2023-02-24T10:34:59;11.60;99.90
37342;DHT22;58643;49.052;8.518;2023-02-24T10:37:25;11.50;99.90
37342;DHT22;58643;49.052;8.518;2023-02-24T10:40:05;11.50;99.90
37342;DHT22;58643;49.052;8.518;2023-02-24T10:42:35;11.40;99.90
37342;DHT22;58643;49.052;8.518;2023-02-24T10:47:52;12.10;99.90
37342;DHT22;58643;49.052;8.518;2023-02-24T10:50:28;13.30;99.90
37342;DHT22;58643;49.052;8.518;2023-02-24T10:53:04;11.10;99.90
37342;DHT22;58643;49.052;8.518;2023-02-24T11:00:44;11.10;99.90
37342;DHT22;58643;49.052;8.518;2023-02-24T11:03:26;11.20;99.90
37342;DHT22;58643;49.052;8.518;2023-02-24T11:06:03;11.80;99.90
37342;DHT22;58643;49.052;8.518;2023-02-24T11:08:30;11.10;99.90
37342;DHT22;58643;49.052;8.518;2023-02-24T11:11:21;11.40;99.90
37342;DHT22;58643;49.052;8.518;2023-02-24T11:13:58;11.50;99.90
37342;DHT22;58643;49.052;8.518;2023-02-24T11:16:44;11.70;99.90
37342;DHT22;58643;49.052;8.518;2023-02-24T11:19:30;12.00;99.90
37342;DHT22;58643;49.052;8.518;2023-02-24T11:21:57;12.30;99.90
37342;DHT22;58643;49.052;8.518;2023-02-24T11:24:24;12.30;99.90
37342;DHT22;58643;49.052;8.518;2023-02-24T11:26:50;13.30;99.90
37342;DHT22;58643;49.052;8.518;2023-02-24T11:29:43;12.30;99.90
37342;DHT22;58643;49.052;8.518;2023-02-24T11:35:18;12.70;99.90
37342;DHT22;58643;49.052;8.518;2023-02-24T11:38:00;13.60;99.90
37342;DHT22;58643;49.052;8.518;2023-02-24T11:40:40;14.30;99.90
37342;DHT22;58643;49.052;8.518;2023-02-24T11:43:14;13.90;99.90
37342;DHT22;58643;49.052;8.518;2023-02-24T11:46:13;14.00;99.90
37342;DHT22;58643;49.052;8.518;2023-02-24T11:48:42;14.90;99.90
37342;DHT22;58643;49.052;8.518;2023-02-24T11:51:34;15.60;99.90
37342;DHT22;58643;49.052;8.518;2023-02-24T11:54:14;12.90;99.90
37342;DHT22;58643;49.052;8.518;2023-02-24T11:56:47;12.30;99.90
37342;DHT22;58643;49.052;8.518;2023-02-24T11:59:36;11.80;99.90
37342;DHT22;58643;49.052;8.518;2023-02-24T12:02:21;11.90;99.90
37342;DHT22;58643;49.052;8.518;2023-02-24T12:05:11;12.70;99.90
37342;DHT22;58643;49.052;8.518;2023-02-24T12:07:41;12.70;99.90
37342;DHT22;58643;49.052;8.518;2023-02-24T12:10:19;12.30;99.90
37342;DHT22;58643;49.052;8.518;2023-02-24T12:15:38;11.90;99.90
37342;DHT22;58643;49.052;8.518;2023-02-24T12:31:49;11.30;99.90
37342;DHT22;58643;49.052;8.518;2023-02-24T12:35:00;11.40;99.90
37342;DHT22;58643;49.052;8.518;2023-02-24T12:46:24;11.60;99.90
37342;DHT22;58643;49.052;8.518;2023-02-24T13:00:04;10.90;99.90
37342;DHT22;58643;49.052;8.518;2023-02-24T13:02:39;10.80;99.90
37342;DHT22;58643;49.052;8.518;2023-02-24T13:05:20;11.60;99.90
37342;DHT22;58643;49.052;8.518;2023-02-24T13:08:09;11.00;99.90
37342;DHT22;58643;49.052;8.518;2023-02-24T13:10:45;11.10;99.90
37342;DHT22;58643;49.052;8.518;2023-02-24T13:13:30;11.20;99.90
37342;DHT22;58643;49.052;8.518;2023-02-24T13:15:59;10.90;99.90
37342;DHT22;58643;49.052;8.518;2023-02-24T13:18:32;10.90;99.90
37342;DHT22;58643;49.052;8.518;2023-02-24T13:23:40;11.30;99.90
37342;DHT22;58643;49.052;8.518;2023-02-24T13:26:06;11.20;99.90
37342;DHT22;58643;49.052;8.518;2023-02-24T13:28:34;11.40;99.90
37342;DHT22;58643;49.052;8.518;2023-02-24T13:31:05;11.00;99.90
37342;DHT22;58643;49.052;8.518;2023-02-24T13:33:34;10.90;99.90
37342;DHT22;58643;49.052;8.518;2023-02-24T13:38:46;10.50;99.90
37342;DHT22;58643;49.052;8.518;2023-02-24T13:49:57;10.40;99.90
37342;DHT22;58643;49.052;8.518;2023-02-24T14:03:32;10.90;99.90
37342;DHT22;58643;49.052;8.518;2023-02-24T14:06:00;10.80;99.90
37342;DHT22;58643;49.052;8.518;2023-02-24T14:08:46;10.60;99.90
37342;DHT22;58643;49.052;8.518;2023-02-24T14:11:14;10.60;99.90
37342;DHT22;58643;49.052;8.518;2023-02-24T14:13:48;12.70;99.90
37342;DHT22;58643;49.052;8.518;2023-02-24T14:16:19;10.60;99.90
37342;DHT22;58643;49.052;8.518;2023-02-24T14:18:55;10.60;99.90
37342;DHT22;58643;49.052;8.518;2023-02-24T14:21:24;10.70;99.90
37342;DHT22;58643;49.052;8.518;2023-02-24T14:23:54;10.60;99.90
37342;DHT22;58643;49.052;8.518;2023-02-24T14:26:20;10.60;99.90
37342;DHT22;58643;49.052;8.518;2023-02-24T14:29:00;10.60;99.90
37342;DHT22;58643;49.052;8.518;2023-02-24T14:31:26;12.40;99.90
37342;DHT22;58643;49.052;8.518;2023-02-24T14:33:58;11.90;99.90
37342;DHT22;58643;49.052;8.518;2023-02-24T14:36:27;11.10;99.90
37342;DHT22;58643;49.052;8.518;2023-02-24T14:39:12;11.20;99.90
37342;DHT22;58643;49.052;8.518;2023-02-24T14:41:39;10.80;99.90
37342;DHT22;58643;49.052;8.518;2023-02-24T14:46:55;11.80;99.90
37342;DHT22;58643;49.052;8.518;2023-02-24T14:49:32;10.70;99.90
37342;DHT22;58643;49.052;8.518;2023-02-24T14:52:03;11.50;99.90
37342;DHT22;58643;49.052;8.518;2023-02-24T14:57:25;10.90;99.90
37342;DHT22;58643;49.052;8.518;2023-02-24T14:59:55;10.70;99.90
37342;DHT22;58643;49.052;8.518;2023-02-24T15:02:26;10.70;99.90
37342;DHT22;58643;49.052;8.518;2023-02-24T15:04:56;12.90;99.90
37342;DHT22;58643;49.052;8.518;2023-02-24T15:07:28;10.70;99.90
37342;DHT22;58643;49.052;8.518;2023-02-24T15:09:55;10.60;99.90
37342;DHT22;58643;49.052;8.518;2023-02-24T15:12:55;10.80;99.90
37342;DHT22;58643;49.052;8.518;2023-02-24T15:15:17;10.70;99.90
37342;DHT22;58643;49.052;8.518;2023-02-24T15:17:43;10.70;99.90
37342;DHT22;58643;49.052;8.518;2023-02-24T15:20:30;10.90;99.90
37342;DHT22;58643;49.052;8.518;2023-02-24T15:22:56;10.60;99.90
37342;DHT22;58643;49.052;8.518;2023-02-24T15:25:44;10.70;99.90
37342;DHT22;58643;49.052;8.518;2023-02-24T15:28:31;10.50;99.90
37342;DHT22;58643;49.052;8.518;2023-02-24T15:33:55;10.70;99.90
37342;DHT22;58643;49.052;8.518;2023-02-24T15:36:23;11.70;99.90
37342;DHT22;58643;49.052;8.518;2023-02-24T15:39:05;10.50;99.90
37342;DHT22;58643;49.052;8.518;2023-02-24T15:41:43;10.40;99.90
37342;DHT22;58643;49.052;8.518;2023-02-24T15:44:27;12.40;99.90
37342;DHT22;58643;49.052;8.518;2023-02-24T15:46:54;10.40;99.90
37342;DHT22;58643;49.052;8.518;2023-02-24T15:49:20;10.40;99.90
37342;DHT22;58643;49.052;8.518;2023-02-24T15:51:48;10.20;99.90
37342;DHT22;58643;49.052;8.518;2023-02-24T15:56:44;10.30;99.90
37342;DHT22;58643;49.052;8.518;2023-02-24T15:59:16;10.30;99.90
37342;DHT22;58643;49.052;8.518;2023-02-24T16:01:42;10.30;99.90
37342;DHT22;58643;49.052;8.518;2023-02-24T16:04:08;12.00;99.90
37342;DHT22;58643;49.052;8.518;2023-02-24T16:06:35;10.40;99.90
37342;DHT22;58643;49.052;8.518;2023-02-24T16:09:11;10.10;99.90
37342;DHT22;58643;49.052;8.518;2023-02-24T16:11:38;10.20;99.90
37342;DHT22;58643;49.052;8.518;2023-02-24T16:14:08;10.10;99.90
37342;DHT22;58643;49.052;8.518;2023-02-24T16:16:36;11.90;99.90
37342;DHT22;58643;49.052;8.518;2023-02-24T16:19:02;10.90;99.90
37342;DHT22;58643;49.052;8.518;2023-02-24T16:21:28;10.10;99.90
37342;DHT22;58643;49.052;8.518;2023-02-24T16:23:54;10.20;99.90
37342;DHT22;58643;49.052;8.518;2023-02-24T16:26:21;11.20;99.90
37342;DHT22;58643;49.052;8.518;2023-02-24T16:28:56;11.00;99.90
37342;DHT22;58643;49.052;8.518;2023-02-24T16:31:24;10.20;99.90
37342;DHT22;58643;49.052;8.518;2023-02-24T16:33:50;10.10;99.90
37342;DHT22;58643;49.052;8.518;2023-02-24T16:36:16;10.10;99.90
37342;DHT22;58643;49.052;8.518;2023-02-24T16:38:42;10.10;99.90
37342;DHT22;58643;49.052;8.518;2023-02-24T16:41:13;10.10;99.90
37342;DHT22;58643;49.052;8.518;2023-02-24T16:43:39;10.00;99.90
37342;DHT22;58643;49.052;8.518;2023-02-24T16:46:06;10.00;99.90
37342;DHT22;58643;49.052;8.518;2023-02-24T16:48:37;10.00;99.90
37342;DHT22;58643;49.052;8.518;2023-02-24T16:51:05;10.10;99.90
37342;DHT22;58643;49.052;8.518;2023-02-24T16:53:31;9.90;99.90
37342;DHT22;58643;49.052;8.518;2023-02-24T16:55:57;12.40;99.90
37342;DHT22;58643;49.052;8.518;2023-02-24T16:58:23;9.90;99.90
37342;DHT22;58643;49.052;8.518;2023-02-24T17:00:50;10.00;99.90
37342;DHT22;58643;49.052;8.518;2023-02-24T17:03:25;9.90;99.90
37342;DHT22;58643;49.052;8.518;2023-02-24T17:05:51;9.70;99.90
37342;DHT22;58643;49.052;8.518;2023-02-24T17:08:17;9.80;99.90
37342;DHT22;58643;49.052;8.518;2023-02-24T17:10:43;9.80;99.90
37342;DHT22;58643;49.052;8.518;2023-02-24T17:13:16;9.90;99.90
37342;DHT22;58643;49.052;8.518;2023-02-24T17:15:42;9.70;99.90
37342;DHT22;58643;49.052;8.518;2023-02-24T17:18:08;9.70;99.90
37342;DHT22;58643;49.052;8.518;2023-02-24T17:20:35;10.90;99.90
37342;DHT22;58643;49.052;8.518;2023-02-24T17:23:02;9.70;99.90
37342;DHT22;58643;49.052;8.518;2023-02-24T17:25:29;9.70;99.90
37342;DHT22;58643;49.052;8.518;2023-02-24T17:27:56;9.70;99.90
37342;DHT22;58643;49.052;8.518;2023-02-24T17:30:28;10.90;99.90
37342;DHT22;58643;49.052;8.518;2023-02-24T17:32:54;9.70;99.90
37342;DHT22;58643;49.052;8.518;2023-02-24T17:35:20;9.60;99.90
37342;DHT22;58643;49.052;8.518;2023-02-24T17:37:46;9.90;99.90
37342;DHT22;58643;49.052;8.518;2023-02-24T17:40:12;9.80;99.90
37342;DHT22;58643;49.052;8.518;2023-02-24T17:42:38;10.40;99.90
37342;DHT22;58643;49.052;8.518;2023-02-24T17:45:05;11.00;99.90
37342;DHT22;58643;49.052;8.518;2023-02-24T17:47:32;9.60;99.90
37342;DHT22;58643;49.052;8.518;2023-02-24T17:49:59;9.00;99.90
37342;DHT22;58643;49.052;8.518;2023-02-24T17:52:24;9.50;99.90
37342;DHT22;58643;49.052;8.518;2023-02-24T17:54:50;9.50;99.90
37342;DHT22;58643;49.052;8.518;2023-02-24T17:57:16;10.00;99.90
37342;DHT22;58643;49.052;8.518;2023-02-24T17:59:42;9.60;99.90
37342;DHT22;58643;49.052;8.518;2023-02-24T18:02:10;10.70;99.90
37342;DHT22;58643;49.052;8.518;2023-02-24T18:04:36;8.90;99.90
37342;DHT22;58643;49.052;8.518;2023-02-24T18:07:02;9.40;99.90
37342;DHT22;58643;49.052;8.518;2023-02-24T18:09:28;9.40;99.90
37342;DHT22;58643;49.052;8.518;2023-02-24T18:11:53;9.40;99.90
37342;DHT22;58643;49.052;8.518;2023-02-24T18:14:20;9.40;99.90
37342;DHT22;58643;49.052;8.518;2023-02-24T18:16:46;9.30;99.90
37342;DHT22;58643;49.052;8.518;2023-02-24T18:19:11;9.80;99.90
37342;DHT22;58643;49.052;8.518;2023-02-24T18:21:37;9.20;99.90
37342;DHT22;58643;49.052;8.518;2023-02-24T18:24:03;9.20;99.90
37342;DHT22;58643;49.052;8.518;2023-02-24T18:26:29;9.10;99.90
37342;DHT22;58643;49.052;8.518;2023-02-24T18:28:55;9.10;99.90
37342;DHT22;58643;49.052;8.518;2023-02-24T18:31:23;10.80;99.90
37342;DHT22;58643;49.052;8.518;2023-02-24T18:33:49;10.10;99.90